createdAt,value
2022-09-26T00:00:42.226Z,69.37
2022-09-26T00:03:09.674Z,69.26
2022-09-26T00:05:37.738Z,69.25
2022-09-26T00:08:05.738Z,69.26
2022-09-26T00:10:32.968Z,69.05
2022-09-26T00:12:59.712Z,69.18
2022-09-26T00:15:26.496Z,69.05
2022-09-26T00:17:53.221Z,69.33
2022-09-26T00:20:20.218Z,69.26
2022-09-26T00:22:46.993Z,69.32
2022-09-26T00:25:13.779Z,69.26
2022-09-26T00:27:40.587Z,69.40
2022-09-26T00:30:07.685Z,69.30
2022-09-26T00:32:34.536Z,69.49
2022-09-26T00:35:01.326Z,69.58
2022-09-26T00:37:28.143Z,69.63
2022-09-26T00:39:54.892Z,69.53
2022-09-26T00:42:23.086Z,69.65
2022-09-26T00:44:54.475Z,69.74
2022-09-26T00:47:44.777Z,69.79
2022-09-26T00:50:24.213Z,69.92
2022-09-26T00:53:09.541Z,69.86
2022-09-26T00:55:39.954Z,69.94
2022-09-26T00:58:10.659Z,70.09
2022-09-26T01:00:42.082Z,70.00
2022-09-26T01:03:09.170Z,70.12
2022-09-26T01:05:37.824Z,70.29
2022-09-26T01:08:05.500Z,69.78
2022-09-26T01:10:32.534Z,70.01
2022-09-26T01:13:00.111Z,69.92
2022-09-26T01:15:27.085Z,70.04
2022-09-26T01:17:53.827Z,70.13
2022-09-26T01:20:28.387Z,70.23
2022-09-26T01:23:20.045Z,70.10
2022-09-26T01:26:14.615Z,70.15
2022-09-26T01:29:02.649Z,70.31
2022-09-26T01:32:16.842Z,70.19
2022-09-26T01:35:11.438Z,70.58
2022-09-26T01:38:03.132Z,70.30
2022-09-26T01:40:49.070Z,70.42
2022-09-26T01:43:25.832Z,70.41
2022-09-26T01:45:58.519Z,70.28
2022-09-26T01:48:31.332Z,70.58
2022-09-26T01:51:04.840Z,70.53
2022-09-26T01:53:39.679Z,70.36
2022-09-26T01:56:19.998Z,70.29
2022-09-26T01:59:03.026Z,70.29
2022-09-26T02:01:33.094Z,70.38
2022-09-26T02:04:08.682Z,70.49
2022-09-26T02:06:40.678Z,70.50
2022-09-26T02:09:11.342Z,70.25
2022-09-26T02:11:40.520Z,70.45
2022-09-26T02:14:12.134Z,70.47
2022-09-26T02:16:42.335Z,70.49
2022-09-26T02:19:16.735Z,70.39
2022-09-26T02:21:43.741Z,70.68
2022-09-26T02:24:10.553Z,70.65
2022-09-26T02:26:37.327Z,70.77
2022-09-26T02:29:05.283Z,70.55
2022-09-26T02:31:35.953Z,70.79
2022-09-26T02:34:03.233Z,70.74
2022-09-26T02:36:34.456Z,70.46
2022-09-26T02:39:01.556Z,70.77
2022-09-26T02:41:48.127Z,70.72
2022-09-26T02:44:33.910Z,70.72
2022-09-26T02:47:12.982Z,70.74
2022-09-26T02:49:46.225Z,70.78
2022-09-26T02:52:35.973Z,70.68
2022-09-26T02:55:11.500Z,70.75
2022-09-26T02:57:46.063Z,70.89
2022-09-26T03:00:45.351Z,70.88
2022-09-26T03:03:35.842Z,70.67
2022-09-26T03:06:04.631Z,70.80
2022-09-26T03:08:36.228Z,70.63
2022-09-26T03:11:05.083Z,70.66
2022-09-26T03:13:36.026Z,70.85
2022-09-26T03:16:03.231Z,70.87
2022-09-26T03:18:40.387Z,70.85
2022-09-26T03:21:07.348Z,70.80
2022-09-26T03:23:34.352Z,70.85
2022-09-26T03:26:03.222Z,70.86
2022-09-26T03:28:33.990Z,70.80
2022-09-26T03:31:03.682Z,70.85
2022-09-26T03:33:30.442Z,70.90
2022-09-26T03:35:59.417Z,70.82
2022-09-26T03:38:26.934Z,71.18
2022-09-26T03:40:53.818Z,70.86
2022-09-26T03:43:24.478Z,70.80
2022-09-26T03:45:51.619Z,71.06
2022-09-26T03:48:18.458Z,70.92
2022-09-26T03:50:45.512Z,70.99
2022-09-26T03:53:12.696Z,70.96
2022-09-26T03:55:39.791Z,70.95
2022-09-26T03:58:06.623Z,70.99
2022-09-26T04:00:33.916Z,70.96
2022-09-26T04:03:04.291Z,70.97
2022-09-26T04:05:31.298Z,71.02
2022-09-26T04:07:58.976Z,71.01
2022-09-26T04:10:25.771Z,71.12
2022-09-26T04:12:52.717Z,70.94
2022-09-26T04:15:19.511Z,71.10
2022-09-26T04:17:46.463Z,70.94
2022-09-26T04:20:13.377Z,70.91
2022-09-26T04:22:42.008Z,70.89
2022-09-26T04:25:10.258Z,70.88
2022-09-26T04:27:38.041Z,71.03
2022-09-26T04:30:05.367Z,71.10
2022-09-26T04:32:32.196Z,70.82
2022-09-26T04:34:59.020Z,70.98
2022-09-26T04:37:25.912Z,70.92
2022-09-26T04:39:52.722Z,71.12
2022-09-26T04:42:19.674Z,71.02
2022-09-26T04:44:46.767Z,70.94
2022-09-26T04:47:13.599Z,70.96
2022-09-26T04:49:40.455Z,71.05
2022-09-26T04:52:07.265Z,70.96
2022-09-26T04:54:37.262Z,71.03
2022-09-26T04:57:04.722Z,71.05
2022-09-26T04:59:31.557Z,71.13
2022-09-26T05:01:58.569Z,71.19
2022-09-26T05:04:27.833Z,71.16
2022-09-26T05:06:57.838Z,71.31
2022-09-26T05:09:25.341Z,71.24
2022-09-26T05:11:52.433Z,71.14
2022-09-26T05:14:19.297Z,71.31
2022-09-26T05:16:47.204Z,71.11
2022-09-26T05:19:14.200Z,71.19
2022-09-26T05:21:41.580Z,71.11
2022-09-26T05:24:27.082Z,71.18
2022-09-26T05:26:53.914Z,71.05
2022-09-26T05:29:22.012Z,71.26
2022-09-26T05:31:49.056Z,71.26
2022-09-26T05:34:19.874Z,71.36
2022-09-26T05:36:47.426Z,71.24
2022-09-26T05:39:32.813Z,71.36
2022-09-26T05:41:59.855Z,71.55
2022-09-26T05:44:27.261Z,71.58
2022-09-26T05:46:54.142Z,71.50
2022-09-26T05:49:20.891Z,71.55
2022-09-26T05:51:47.592Z,71.53
2022-09-26T05:54:14.325Z,71.52
2022-09-26T05:56:41.036Z,71.59
2022-09-26T05:59:07.816Z,71.40
2022-09-26T06:01:35.360Z,72.08
2022-09-26T06:04:04.933Z,71.97
2022-09-26T06:06:31.668Z,71.74
2022-09-26T06:08:58.451Z,71.81
2022-09-26T06:11:30.815Z,71.95
2022-09-26T06:14:00.443Z,71.93
2022-09-26T06:16:27.860Z,72.20
2022-09-26T06:18:55.734Z,72.10
2022-09-26T06:21:23.099Z,72.07
2022-09-26T06:23:49.854Z,72.17
2022-09-26T06:26:21.858Z,71.92
2022-09-26T06:28:50.320Z,72.37
2022-09-26T06:31:18.633Z,72.00
2022-09-26T06:33:50.152Z,71.84
2022-09-26T06:36:16.914Z,72.02
2022-09-26T06:38:43.649Z,71.77
2022-09-26T06:41:10.465Z,71.78
2022-09-26T06:43:37.189Z,71.79
2022-09-26T06:46:08.343Z,71.78
2022-09-26T06:48:35.674Z,71.77
2022-09-26T06:51:02.405Z,71.75
2022-09-26T06:53:29.267Z,71.84
2022-09-26T06:55:56.062Z,71.91
2022-09-26T06:58:22.810Z,72.05
2022-09-26T07:00:49.799Z,72.22
2022-09-26T07:03:16.653Z,72.14
2022-09-26T07:05:45.223Z,72.09
2022-09-26T07:08:12.020Z,72.34
2022-09-26T07:10:38.776Z,72.44
2022-09-26T07:13:09.436Z,72.53
2022-09-26T07:15:37.037Z,72.42
2022-09-26T07:18:06.291Z,72.59
2022-09-26T07:20:36.881Z,72.55
2022-09-26T07:23:04.860Z,72.76
2022-09-26T07:25:32.165Z,72.67
2022-09-26T07:27:59.078Z,72.54
2022-09-26T07:30:25.945Z,72.25
2022-09-26T07:32:52.670Z,72.23
2022-09-26T07:35:19.384Z,72.00
2022-09-26T07:37:46.725Z,71.93
2022-09-26T07:40:13.551Z,71.78
2022-09-26T07:42:41.765Z,71.46
2022-09-26T07:45:24.879Z,70.99
2022-09-26T07:48:14.419Z,70.89
2022-09-26T07:50:41.202Z,70.90
2022-09-26T07:53:10.807Z,70.94
2022-09-26T07:55:57.578Z,70.98
2022-09-26T07:58:26.074Z,70.71
2022-09-26T08:00:55.893Z,70.67
2022-09-26T08:03:24.152Z,70.41
2022-09-26T08:05:51.429Z,70.38
2022-09-26T08:08:18.246Z,70.32
2022-09-26T08:10:46.013Z,70.28
2022-09-26T08:13:12.924Z,70.15
2022-09-26T08:15:39.738Z,70.35
2022-09-26T08:18:06.591Z,70.43
2022-09-26T08:20:33.881Z,70.39
2022-09-26T08:23:01.378Z,70.12
2022-09-26T08:25:28.102Z,70.31
2022-09-26T08:27:59.534Z,70.46
2022-09-26T08:30:33.789Z,70.30
2022-09-26T08:33:03.471Z,70.51
2022-09-26T08:35:33.777Z,70.28
2022-09-26T08:38:07.513Z,70.26
2022-09-26T08:40:57.533Z,70.07
2022-09-26T08:43:41.641Z,69.90
2022-09-26T08:46:48.124Z,69.42
2022-09-26T08:49:32.114Z,69.60
2022-09-26T08:52:00.635Z,69.68
2022-09-26T08:54:34.702Z,69.58
2022-09-26T08:57:07.662Z,69.39
2022-09-26T08:59:43.537Z,69.11
2022-09-26T09:02:30.212Z,68.92
2022-09-26T09:05:10.585Z,68.96
2022-09-26T09:07:37.376Z,68.75
2022-09-26T09:10:07.681Z,68.76
2022-09-26T09:13:04.028Z,68.52
2022-09-26T09:15:43.931Z,68.53
2022-09-26T09:18:29.235Z,68.22
2022-09-26T09:20:58.226Z,68.43
2022-09-26T09:23:43.258Z,68.42
2022-09-26T09:29:36.102Z,68.72
2022-09-26T09:32:04.442Z,68.77
2022-09-26T09:34:39.756Z,69.12
2022-09-26T09:37:19.698Z,68.98
2022-09-26T09:39:48.122Z,68.98
2022-09-26T09:42:36.392Z,69.11
2022-09-26T09:45:15.450Z,69.17
2022-09-26T09:47:42.230Z,69.23
2022-09-26T09:50:15.168Z,69.08
2022-09-26T09:52:51.034Z,69.20
2022-09-26T09:55:38.986Z,69.15
2022-09-26T09:58:29.728Z,69.21
2022-09-26T10:01:21.759Z,69.16
2022-09-26T10:04:32.656Z,69.18
2022-09-26T10:07:01.831Z,69.63
2022-09-26T10:09:40.744Z,69.27
2022-09-26T10:12:19.358Z,69.33
2022-09-26T10:14:51.315Z,69.68
2022-09-26T10:17:20.860Z,69.61
2022-09-26T10:19:47.939Z,69.75
2022-09-26T10:22:26.179Z,69.72
2022-09-26T10:25:00.228Z,70.03
2022-09-26T10:27:38.227Z,70.00
2022-09-26T10:30:33.119Z,69.89
2022-09-26T10:33:01.679Z,69.88
2022-09-26T10:35:42.824Z,69.90
2022-09-26T10:38:24.087Z,69.93
2022-09-26T10:40:55.223Z,69.92
2022-09-26T10:43:31.254Z,69.71
2022-09-26T10:46:15.538Z,69.50
2022-09-26T10:48:51.787Z,69.50
2022-09-26T10:51:31.828Z,69.46
2022-09-26T10:54:02.762Z,69.10
2022-09-26T10:56:31.652Z,69.20
2022-09-26T10:59:04.390Z,68.91
2022-09-26T11:01:31.805Z,69.08
2022-09-26T11:04:14.873Z,69.22
2022-09-26T11:06:46.975Z,69.13
2022-09-26T11:09:19.102Z,69.24
2022-09-26T11:11:53.185Z,69.10
2022-09-26T11:14:29.163Z,68.98
2022-09-26T11:16:56.556Z,69.36
2022-09-26T11:19:53.790Z,69.28
2022-09-26T11:22:37.416Z,69.51
2022-09-26T11:25:11.241Z,69.73
2022-09-26T11:27:43.963Z,69.94
2022-09-26T11:30:12.889Z,70.03
2022-09-26T11:32:42.811Z,70.36
2022-09-26T11:35:29.757Z,70.56
2022-09-26T11:38:35.823Z,70.86
2022-09-26T11:41:37.143Z,70.92
2022-09-26T11:44:26.364Z,70.96
2022-09-26T11:47:38.444Z,71.10
2022-09-26T11:50:05.097Z,71.17
2022-09-26T11:52:31.798Z,71.29
2022-09-26T11:55:28.099Z,71.34
2022-09-26T11:58:03.706Z,71.38
2022-09-26T12:01:00.749Z,71.38
2022-09-26T12:03:36.803Z,71.18
2022-09-26T12:06:20.510Z,71.17
2022-09-26T12:09:11.943Z,71.29
2022-09-26T12:11:53.108Z,71.29
2022-09-26T12:14:49.812Z,71.04
2022-09-26T12:17:41.173Z,71.37
2022-09-26T12:20:07.830Z,71.28
2022-09-26T12:22:50.976Z,71.31
2022-09-26T12:25:38.780Z,71.38
2022-09-26T12:28:16.349Z,71.35
2022-09-26T12:31:11.936Z,71.44
2022-09-26T12:33:59.523Z,71.52
2022-09-26T12:36:47.855Z,71.58
2022-09-26T12:39:27.774Z,71.29
2022-09-26T12:42:25.288Z,71.41
2022-09-26T12:45:15.253Z,71.23
2022-09-26T12:47:52.343Z,71.25
2022-09-26T12:50:46.542Z,71.32
2022-09-26T12:53:34.701Z,71.49
2022-09-26T12:56:26.690Z,71.54
2022-09-26T12:58:59.016Z,71.69
2022-09-26T13:01:38.313Z,71.76
2022-09-26T13:04:28.684Z,71.88
2022-09-26T13:07:26.528Z,71.84
2022-09-26T13:10:02.548Z,71.85
2022-09-26T13:12:45.695Z,72.02
2022-09-26T13:15:30.391Z,72.33
2022-09-26T13:18:02.255Z,72.31
2022-09-26T13:20:43.660Z,72.59
2022-09-26T13:23:27.296Z,72.49
2022-09-26T13:25:59.141Z,72.46
2022-09-26T13:28:30.414Z,72.37
2022-09-26T13:31:04.293Z,72.44
2022-09-26T13:33:39.887Z,72.40
2022-09-26T13:36:08.339Z,72.68
2022-09-26T13:38:56.300Z,72.56
2022-09-26T13:41:22.989Z,72.62
2022-09-26T13:43:58.171Z,72.53
2022-09-26T13:46:40.595Z,72.72
2022-09-26T13:49:25.095Z,72.55
2022-09-26T13:52:10.658Z,72.52
2022-09-26T13:54:57.953Z,72.61
2022-09-26T13:57:38.912Z,72.56
2022-09-26T14:00:31.565Z,72.57
2022-09-26T14:03:13.010Z,72.56
2022-09-26T14:05:46.591Z,72.48
2022-09-26T14:08:44.769Z,72.60
2022-09-26T14:11:34.286Z,72.61
2022-09-26T14:14:16.858Z,72.77
2022-09-26T14:16:51.347Z,72.68
2022-09-26T14:19:37.846Z,72.68
2022-09-26T14:22:16.585Z,72.75
2022-09-26T14:24:44.024Z,72.74
2022-09-26T14:27:10.960Z,72.72
2022-09-26T14:29:42.363Z,72.88
2022-09-26T14:32:10.302Z,72.73
2022-09-26T14:34:49.176Z,72.91
2022-09-26T14:37:24.963Z,72.62
2022-09-26T14:40:10.052Z,72.60
2022-09-26T14:42:50.386Z,72.77
2022-09-26T14:45:17.036Z,72.52
2022-09-26T14:47:48.521Z,72.62
2022-09-26T14:50:20.832Z,72.67
2022-09-26T14:52:56.675Z,72.96
2022-09-26T14:55:24.280Z,73.05
2022-09-26T14:57:51.105Z,72.96
2022-09-26T15:00:53.462Z,73.07
2022-09-26T15:03:21.399Z,72.96
2022-09-26T15:05:49.281Z,72.88
2022-09-26T15:08:27.376Z,72.69
2022-09-26T15:10:56.108Z,72.67
2022-09-26T15:13:29.001Z,72.78
2022-09-26T15:16:13.724Z,72.79
2022-09-26T15:18:43.449Z,72.91
2022-09-26T15:21:32.956Z,72.83
2022-09-26T15:24:02.681Z,72.84
2022-09-26T15:26:33.430Z,72.90
2022-09-26T15:29:00.289Z,73.04
2022-09-26T15:31:38.371Z,72.99
2022-09-26T15:34:12.002Z,73.12
2022-09-26T15:36:39.949Z,73.18
2022-09-26T15:39:31.808Z,73.03
2022-09-26T15:42:17.749Z,73.25
2022-09-26T15:44:48.656Z,73.14
2022-09-26T15:47:31.865Z,73.25
2022-09-26T15:50:13.383Z,73.26
2022-09-26T15:52:48.950Z,73.27
2022-09-26T15:55:18.725Z,73.18
2022-09-26T15:57:46.875Z,72.94
2022-09-26T16:00:14.695Z,73.24
2022-09-26T16:02:41.817Z,73.23
2022-09-26T16:05:12.642Z,73.11
2022-09-26T16:07:41.521Z,73.08
2022-09-26T16:10:33.186Z,73.20
2022-09-26T16:13:00.506Z,73.21
2022-09-26T16:15:28.829Z,73.23
2022-09-26T16:17:57.525Z,73.23
2022-09-26T16:20:27.231Z,73.04
2022-09-26T16:22:59.151Z,73.11
2022-09-26T16:25:32.271Z,73.31
2022-09-26T16:28:00.042Z,73.05
2022-09-26T16:30:33.493Z,73.24
2022-09-26T16:33:03.167Z,73.19
2022-09-26T16:35:33.338Z,73.17
2022-09-26T16:38:02.601Z,73.17
2022-09-26T16:40:31.328Z,73.32
2022-09-26T16:43:14.436Z,73.10
2022-09-26T16:45:51.270Z,73.13
2022-09-26T16:48:52.201Z,73.11
2022-09-26T16:51:30.690Z,73.09
2022-09-26T16:54:20.558Z,73.14
2022-09-26T16:56:53.692Z,73.26
2022-09-26T16:59:26.344Z,73.01
2022-09-26T17:01:55.671Z,72.99
2022-09-26T17:04:33.020Z,73.04
2022-09-26T17:07:01.404Z,72.89
2022-09-26T17:09:33.060Z,72.78
2022-09-26T17:12:11.408Z,72.71
2022-09-26T17:14:40.910Z,72.83
2022-09-26T17:17:13.755Z,72.58
2022-09-26T17:19:41.133Z,72.88
2022-09-26T17:22:21.499Z,72.75
2022-09-26T17:24:49.561Z,72.93
2022-09-26T17:27:19.459Z,72.60
2022-09-26T17:29:48.744Z,72.70
2022-09-26T17:32:18.350Z,72.69
2022-09-26T17:34:45.047Z,72.55
2022-09-26T17:37:14.324Z,72.48
2022-09-26T17:39:41.075Z,72.55
2022-09-26T17:42:07.777Z,72.48
2022-09-26T17:44:34.997Z,72.62
2022-09-26T17:47:02.127Z,72.76
2022-09-26T17:49:33.980Z,72.29
2022-09-26T17:52:02.290Z,72.29
2022-09-26T17:54:36.372Z,72.27
2022-09-26T17:57:03.595Z,72.35
2022-09-26T17:59:30.280Z,72.51
2022-09-26T18:02:01.093Z,72.71
2022-09-26T18:04:29.144Z,72.53
2022-09-26T18:07:00.585Z,72.48
2022-09-26T18:09:32.608Z,72.55
2022-09-26T18:12:00.760Z,72.46
2022-09-26T18:14:30.942Z,72.53
2022-09-26T18:16:58.645Z,72.55
2022-09-26T18:19:25.399Z,72.46
2022-09-26T18:21:55.367Z,72.47
2022-09-26T18:24:26.568Z,72.37
2022-09-26T18:26:56.915Z,72.19
2022-09-26T18:29:39.153Z,72.30
2022-09-26T18:32:13.432Z,72.37
2022-09-26T18:34:40.143Z,72.67
2022-09-26T18:37:06.948Z,72.35
2022-09-26T18:39:33.726Z,72.47
2022-09-26T18:42:02.547Z,72.39
2022-09-26T18:44:29.919Z,72.37
2022-09-26T18:47:01.722Z,72.15
2022-09-26T18:49:30.972Z,72.13
2022-09-26T18:51:57.661Z,72.15
2022-09-26T18:54:25.869Z,72.18
2022-09-26T18:57:11.108Z,72.09
2022-09-26T18:59:37.813Z,72.14
2022-09-26T19:02:17.916Z,71.95
2022-09-26T19:04:44.763Z,72.08
2022-09-26T19:07:11.505Z,71.99
2022-09-26T19:09:38.967Z,71.99
2022-09-26T19:12:06.872Z,71.97
2022-09-26T19:14:33.582Z,72.11
2022-09-26T19:17:00.412Z,72.07
2022-09-26T19:19:28.580Z,71.87
2022-09-26T19:21:58.658Z,71.92
2022-09-26T19:24:31.986Z,71.82
2022-09-26T19:27:06.588Z,71.83
2022-09-26T19:29:42.018Z,71.87
2022-09-26T19:32:33.257Z,71.68
2022-09-26T19:35:15.576Z,71.68
2022-09-26T19:37:42.293Z,71.85
2022-09-26T19:40:13.854Z,71.74
2022-09-26T19:42:42.195Z,71.56
2022-09-26T19:45:10.120Z,71.68
2022-09-26T19:47:38.988Z,71.65
2022-09-26T19:50:06.350Z,71.61
2022-09-26T19:52:33.044Z,71.38
2022-09-26T19:55:00.499Z,71.56
2022-09-26T19:57:27.194Z,71.49
2022-09-26T19:59:53.926Z,71.81
2022-09-26T20:02:30.862Z,71.68
2022-09-26T20:04:57.669Z,71.60
2022-09-26T20:07:24.420Z,71.63
2022-09-26T20:09:52.089Z,71.70
2022-09-26T20:12:18.811Z,71.57
2022-09-26T20:14:45.561Z,71.75
2022-09-26T20:17:19.200Z,71.64
2022-09-26T20:19:46.787Z,71.67
2022-09-26T20:22:19.509Z,71.49
2022-09-26T20:24:48.168Z,71.42
2022-09-26T20:27:20.911Z,71.47
2022-09-26T20:30:07.371Z,71.58
2022-09-26T20:32:34.757Z,71.64
2022-09-26T20:35:01.714Z,71.38
2022-09-26T20:37:32.221Z,71.57
2022-09-26T20:40:00.207Z,71.66
2022-09-26T20:42:30.702Z,71.48
2022-09-26T20:44:57.395Z,71.74
2022-09-26T20:47:24.882Z,71.94
2022-09-26T20:49:57.400Z,71.80
2022-09-26T20:52:29.129Z,71.76
2022-09-26T20:54:56.503Z,71.55
2022-09-26T20:57:24.053Z,71.73
2022-09-26T20:59:50.970Z,71.67
2022-09-26T21:02:26.621Z,71.59
2022-09-26T21:04:53.826Z,71.70
2022-09-26T21:07:21.127Z,71.74
2022-09-26T21:09:49.591Z,71.70
2022-09-26T21:12:17.344Z,71.62
2022-09-26T21:14:44.144Z,71.56
2022-09-26T21:17:19.481Z,71.71
2022-09-26T21:19:46.264Z,71.61
2022-09-26T21:22:13.122Z,71.71
2022-09-26T21:24:41.986Z,71.61
2022-09-26T21:27:15.240Z,71.57
2022-09-26T21:29:43.483Z,71.69
2022-09-26T21:32:16.907Z,71.56
2022-09-26T21:34:52.048Z,71.42
2022-09-26T21:37:18.779Z,71.67
2022-09-26T21:39:45.846Z,71.60
2022-09-26T21:42:12.531Z,71.68
2022-09-26T21:44:43.335Z,71.58
2022-09-26T21:47:10.394Z,71.65
2022-09-26T21:49:37.097Z,71.59
2022-09-26T21:52:10.433Z,71.66
2022-09-26T21:54:43.308Z,71.57
2022-09-26T21:57:13.685Z,71.53
2022-09-26T21:59:40.866Z,71.48
2022-09-26T22:02:07.625Z,71.47
2022-09-26T22:04:35.172Z,71.49
2022-09-26T22:07:01.897Z,71.46
2022-09-26T22:09:28.572Z,71.46
2022-09-26T22:11:55.359Z,71.30
2022-09-26T22:14:22.036Z,71.52
2022-09-26T22:16:48.777Z,71.48
2022-09-26T22:19:16.512Z,71.38
2022-09-26T22:21:43.337Z,71.32
2022-09-26T22:24:10.377Z,71.26
2022-09-26T22:26:37.140Z,71.29
2022-09-26T22:29:03.907Z,71.08
2022-09-26T22:31:30.607Z,71.32
2022-09-26T22:33:58.052Z,71.26
2022-09-26T22:36:25.336Z,71.00
2022-09-26T22:38:52.268Z,70.92
2022-09-26T22:41:19.043Z,70.92
2022-09-26T22:43:46.088Z,71.12
2022-09-26T22:46:13.188Z,71.17
2022-09-26T22:48:41.980Z,71.15
2022-09-26T22:51:09.184Z,71.24
2022-09-26T22:53:37.449Z,71.06
2022-09-26T22:56:05.252Z,71.31
2022-09-26T22:58:40.411Z,71.12
2022-09-26T23:01:09.418Z,71.14
2022-09-26T23:03:36.726Z,71.30
2022-09-26T23:06:04.264Z,71.40
2022-09-26T23:08:32.498Z,71.36
2022-09-26T23:10:59.517Z,71.44
2022-09-26T23:13:26.917Z,71.46
2022-09-26T23:15:53.928Z,71.34
2022-09-26T23:18:21.142Z,71.31
2022-09-26T23:20:47.876Z,71.24
2022-09-26T23:23:14.850Z,71.37
2022-09-26T23:25:49.411Z,71.43
2022-09-26T23:28:17.056Z,71.49
2022-09-26T23:30:44.142Z,71.24
2022-09-26T23:33:10.959Z,71.57
2022-09-26T23:35:38.137Z,71.47
2022-09-26T23:38:05.403Z,71.52
2022-09-26T23:40:32.589Z,71.52
2022-09-26T23:42:59.458Z,71.44
2022-09-26T23:45:27.017Z,71.37
2022-09-26T23:47:53.836Z,71.46
2022-09-26T23:50:20.716Z,71.42
2022-09-26T23:52:47.389Z,71.41
2022-09-26T23:55:14.112Z,71.26
2022-09-26T23:57:40.801Z,71.27
